createdAt,value
2019-02-26T00:01:01.142Z,18.97
2019-02-26T00:03:30.880Z,18.97
2019-02-26T00:05:59.478Z,19.10
2019-02-26T00:08:31.228Z,18.83
2019-02-26T00:11:01.166Z,19.30
2019-02-26T00:13:29.500Z,17.60
2019-02-26T00:16:03.129Z,18.30
2019-02-26T00:18:28.667Z,18.47
2019-02-26T00:20:58.573Z,18.27
2019-02-26T00:23:28.041Z,17.67
2019-02-26T00:25:56.139Z,17.30
2019-02-26T00:28:23.933Z,18.98
2019-02-26T00:30:51.677Z,17.87
2019-02-26T00:33:22.177Z,16.67
2019-02-26T00:35:50.268Z,16.63
2019-02-26T00:38:19.883Z,17.10
2019-02-26T00:40:47.998Z,16.73
2019-02-26T00:43:15.899Z,17.27
2019-02-26T00:45:43.645Z,16.03
2019-02-26T00:48:13.659Z,16.43
2019-02-26T00:50:41.498Z,16.07
2019-02-26T00:53:09.290Z,17.10
2019-02-26T00:55:39.690Z,16.75
2019-02-26T00:58:08.530Z,17.43
2019-02-26T01:00:37.493Z,17.00
2019-02-26T01:03:05.997Z,15.73
2019-02-26T01:05:36.252Z,16.30
2019-02-26T01:08:06.147Z,16.07
2019-02-26T01:10:36.739Z,16.53
2019-02-26T01:13:05.140Z,15.63
2019-02-26T01:15:34.789Z,16.80
2019-02-26T01:18:03.194Z,16.47
2019-02-26T01:20:32.470Z,17.50
2019-02-26T01:23:00.334Z,16.13
2019-02-26T01:25:28.070Z,17.03
2019-02-26T01:27:57.964Z,17.90
2019-02-26T01:30:27.034Z,16.40
2019-02-26T01:32:57.537Z,15.80
2019-02-26T01:35:26.159Z,17.83
2019-02-26T01:37:55.784Z,16.60
2019-02-26T01:40:25.809Z,18.17
2019-02-26T01:42:57.378Z,16.73
2019-02-26T01:45:25.003Z,16.63
2019-02-26T01:47:53.648Z,18.13
2019-02-26T01:50:22.995Z,17.77
2019-02-26T01:52:51.876Z,17.50
2019-02-26T01:55:22.834Z,18.47
2019-02-26T01:57:50.698Z,17.77
2019-02-26T02:00:18.828Z,18.53
2019-02-26T02:02:46.788Z,17.97
2019-02-26T02:05:14.881Z,19.10
2019-02-26T02:07:44.839Z,17.80
2019-02-26T02:10:14.119Z,18.30
2019-02-26T02:12:42.083Z,18.70
2019-02-26T02:15:14.942Z,18.10
2019-02-26T02:17:42.711Z,18.27
2019-02-26T02:20:13.086Z,18.57
2019-02-26T02:22:42.593Z,18.20
2019-02-26T02:25:11.904Z,17.70
2019-02-26T02:27:39.768Z,18.45
2019-02-26T02:30:18.583Z,18.12
2019-02-26T02:32:42.724Z,17.25
2019-02-26T02:35:12.609Z,18.77
2019-02-26T02:37:40.555Z,18.48
2019-02-26T02:40:09.081Z,18.97
2019-02-26T02:42:37.726Z,19.07
2019-02-26T02:45:10.695Z,18.15
2019-02-26T02:47:38.806Z,18.57
2019-02-26T02:50:09.225Z,19.00
2019-02-26T02:52:38.159Z,19.30
2019-02-26T02:55:06.880Z,18.73
2019-02-26T02:57:36.203Z,19.23
2019-02-26T03:00:08.387Z,20.03
2019-02-26T03:02:40.538Z,20.33
2019-02-26T03:05:06.178Z,19.20
2019-02-26T03:07:33.903Z,20.10
2019-02-26T03:10:06.227Z,19.77
2019-02-26T03:12:33.545Z,20.80
2019-02-26T03:15:02.264Z,19.83
2019-02-26T03:17:31.365Z,19.62
2019-02-26T03:20:01.968Z,21.60
2019-02-26T03:22:30.370Z,21.75
2019-02-26T03:24:59.604Z,20.65
2019-02-26T03:27:31.161Z,21.40
2019-02-26T03:29:59.116Z,21.12
2019-02-26T03:32:27.512Z,21.93
2019-02-26T03:34:55.433Z,21.00
2019-02-26T03:37:23.943Z,20.47
2019-02-26T03:39:55.209Z,21.87
2019-02-26T03:42:22.936Z,22.63
2019-02-26T03:44:50.732Z,21.43
2019-02-26T03:47:19.255Z,21.77
2019-02-26T03:49:47.371Z,22.17
2019-02-26T03:52:15.873Z,23.20
2019-02-26T03:54:45.935Z,22.43
2019-02-26T03:57:14.226Z,22.13
2019-02-26T03:59:43.432Z,22.17
2019-02-26T04:02:12.614Z,22.00
2019-02-26T04:04:41.514Z,22.35
2019-02-26T04:07:10.707Z,22.93
2019-02-26T04:09:41.867Z,21.90
2019-02-26T04:12:11.192Z,22.15
2019-02-26T04:14:38.363Z,21.57
2019-02-26T04:17:08.876Z,21.55
2019-02-26T04:19:36.233Z,19.93
2019-02-26T04:22:32.039Z,22.57
2019-02-26T04:25:08.233Z,21.67
2019-02-26T04:28:13.951Z,21.77
2019-02-26T04:31:04.641Z,21.10
2019-02-26T04:34:01.803Z,21.73
2019-02-26T04:36:49.731Z,21.43
2019-02-26T04:40:20.378Z,21.73
2019-02-26T04:43:27.736Z,22.10
2019-02-26T04:46:41.693Z,21.17
2019-02-26T04:49:09.723Z,21.48
2019-02-26T04:51:41.522Z,20.87
2019-02-26T04:54:07.362Z,21.27
2019-02-26T04:56:37.061Z,21.03
2019-02-26T04:59:07.026Z,21.73
2019-02-26T05:01:35.123Z,21.55
2019-02-26T05:04:03.278Z,20.57
2019-02-26T05:06:31.049Z,21.52
2019-02-26T05:09:00.248Z,21.80
2019-02-26T05:11:32.664Z,22.15
2019-02-26T05:13:58.304Z,21.60
2019-02-26T05:16:28.896Z,21.83
2019-02-26T05:18:58.369Z,21.93
2019-02-26T05:21:27.090Z,22.60
2019-02-26T05:23:57.498Z,22.87
2019-02-26T05:26:25.234Z,21.70
2019-02-26T05:28:53.013Z,22.25
2019-02-26T05:31:21.026Z,22.03
2019-02-26T05:33:50.131Z,21.77
2019-02-26T05:36:18.493Z,21.93
2019-02-26T05:38:46.226Z,21.25
2019-02-26T05:41:14.027Z,22.17
2019-02-26T05:43:42.309Z,21.95
2019-02-26T05:46:10.149Z,21.83
2019-02-26T05:48:39.966Z,22.02
2019-02-26T05:51:09.346Z,20.85
2019-02-26T05:53:37.594Z,22.32
2019-02-26T05:56:05.518Z,21.80
2019-02-26T05:58:35.516Z,20.80
2019-02-26T06:01:03.192Z,22.52
2019-02-26T06:03:31.054Z,21.43
2019-02-26T06:06:00.470Z,22.95
2019-02-26T06:08:30.228Z,22.40
2019-02-26T06:10:58.435Z,23.22
2019-02-26T06:13:28.923Z,22.80
2019-02-26T06:15:58.563Z,22.52
2019-02-26T06:18:25.637Z,22.40
2019-02-26T06:20:55.483Z,23.25
2019-02-26T06:23:25.314Z,22.27
2019-02-26T06:25:55.248Z,22.98
2019-02-26T06:28:22.772Z,22.75
2019-02-26T06:30:58.047Z,23.18
2019-02-26T06:33:26.016Z,22.50
2019-02-26T06:35:54.916Z,22.03
2019-02-26T06:38:25.861Z,22.80
2019-02-26T06:40:53.948Z,23.07
2019-02-26T06:43:21.835Z,23.12
2019-02-26T06:45:49.636Z,23.77
2019-02-26T06:48:20.176Z,23.70
2019-02-26T06:50:48.045Z,23.42
2019-02-26T06:53:16.667Z,24.40
2019-02-26T06:55:45.684Z,23.67
2019-02-26T06:58:24.171Z,24.47
2019-02-26T07:00:55.229Z,23.23
2019-02-26T07:03:24.159Z,24.07
2019-02-26T07:05:52.319Z,25.50
2019-02-26T07:08:21.965Z,25.62
2019-02-26T07:10:50.500Z,25.08
2019-02-26T07:13:18.257Z,25.35
2019-02-26T07:15:46.285Z,24.57
2019-02-26T07:18:17.053Z,26.73
2019-02-26T07:20:46.784Z,25.10
2019-02-26T07:23:15.445Z,25.83
2019-02-26T07:25:44.112Z,26.55
2019-02-26T07:28:12.837Z,25.23
2019-02-26T07:30:42.865Z,27.27
2019-02-26T07:33:12.259Z,27.58
2019-02-26T07:35:40.836Z,25.08
2019-02-26T07:38:08.647Z,25.40
2019-02-26T07:40:38.483Z,27.42
2019-02-26T07:43:09.094Z,27.03
2019-02-26T07:45:35.976Z,27.73
2019-02-26T07:48:03.991Z,27.03
2019-02-26T07:50:37.489Z,25.92
2019-02-26T07:53:01.815Z,26.10
2019-02-26T07:55:30.803Z,26.73
2019-02-26T07:57:59.407Z,26.70
2019-02-26T08:00:27.280Z,25.90
2019-02-26T08:02:57.796Z,26.75
2019-02-26T08:05:26.810Z,26.30
2019-02-26T08:07:56.541Z,26.50
2019-02-26T08:10:24.287Z,26.97
2019-02-26T08:12:52.120Z,26.33
2019-02-26T08:15:20.066Z,26.17
2019-02-26T08:17:50.209Z,26.77
2019-02-26T08:20:17.652Z,27.20
2019-02-26T08:22:46.413Z,26.05
2019-02-26T08:25:14.371Z,26.40
2019-02-26T08:27:42.188Z,26.37
2019-02-26T08:30:14.624Z,26.57
2019-02-26T08:32:42.497Z,26.70
2019-02-26T08:35:20.242Z,25.40
2019-02-26T08:37:48.049Z,26.52
2019-02-26T08:40:15.908Z,26.77
2019-02-26T08:42:43.714Z,27.50
2019-02-26T08:45:17.814Z,26.82
2019-02-26T08:47:46.493Z,27.55
2019-02-26T08:50:15.048Z,26.43
2019-02-26T08:52:44.867Z,27.97
2019-02-26T08:55:15.554Z,26.73
2019-02-26T08:57:43.145Z,27.30
2019-02-26T09:00:16.118Z,27.07
2019-02-26T09:02:46.018Z,27.13
2019-02-26T09:05:14.062Z,27.80
2019-02-26T09:07:45.054Z,25.90
2019-02-26T09:10:14.928Z,27.87
2019-02-26T09:12:44.143Z,28.83
2019-02-26T09:15:15.733Z,27.80
2019-02-26T09:17:43.421Z,25.47
2019-02-26T09:20:14.711Z,28.00
2019-02-26T09:22:45.725Z,26.53
2019-02-26T09:25:13.098Z,26.77
2019-02-26T09:27:43.071Z,26.90
2019-02-26T09:30:14.070Z,26.87
2019-02-26T09:32:44.865Z,28.97
2019-02-26T09:35:13.576Z,28.50
2019-02-26T09:37:42.889Z,27.77
2019-02-26T09:40:12.641Z,27.33
2019-02-26T09:42:41.058Z,25.33
2019-02-26T09:45:11.586Z,28.13
2019-02-26T09:47:39.369Z,27.57
2019-02-26T09:50:10.440Z,27.70
2019-02-26T09:52:40.472Z,26.97
2019-02-26T09:55:10.635Z,28.30
2019-02-26T09:57:38.559Z,28.03
2019-02-26T10:00:10.384Z,26.17
2019-02-26T10:02:40.040Z,26.40
2019-02-26T10:05:08.802Z,27.40
2019-02-26T10:07:38.736Z,28.37
2019-02-26T10:10:11.546Z,27.73
2019-02-26T10:12:39.418Z,27.13
2019-02-26T10:15:08.202Z,26.70
2019-02-26T10:17:39.640Z,27.70
2019-02-26T10:20:09.446Z,26.47
2019-02-26T10:22:38.663Z,25.87
2019-02-26T10:25:07.894Z,26.97
2019-02-26T10:27:36.658Z,26.30
2019-02-26T10:30:10.632Z,25.63
2019-02-26T10:32:38.055Z,27.17
2019-02-26T10:35:09.314Z,25.50
2019-02-26T10:37:45.796Z,26.97
2019-02-26T10:40:14.576Z,27.33
2019-02-26T10:42:43.800Z,25.90
2019-02-26T10:45:12.852Z,25.60
2019-02-26T10:47:40.786Z,25.33
2019-02-26T10:50:13.060Z,26.40
2019-02-26T10:52:41.039Z,29.93
2019-02-26T10:55:12.678Z,25.50
2019-02-26T10:57:39.364Z,24.87
2019-02-26T11:00:11.935Z,25.33
2019-02-26T11:02:40.716Z,25.63
2019-02-26T11:05:11.373Z,24.10
2019-02-26T11:07:40.174Z,25.27
2019-02-26T11:10:11.854Z,25.00
2019-02-26T11:12:41.027Z,25.30
2019-02-26T11:15:09.404Z,25.03
2019-02-26T11:17:37.400Z,24.47
2019-02-26T11:20:07.737Z,22.77
2019-02-26T11:22:36.015Z,23.60
2019-02-26T11:25:04.520Z,22.30
2019-02-26T11:27:35.238Z,23.23
2019-02-26T11:30:05.079Z,23.57
2019-02-26T11:32:37.344Z,25.63
2019-02-26T11:35:02.838Z,23.83
2019-02-26T11:37:32.071Z,23.23
2019-02-26T11:40:02.462Z,23.53
2019-02-26T11:42:29.683Z,26.90
2019-02-26T11:44:57.486Z,22.77
2019-02-26T11:47:25.339Z,23.83
2019-02-26T11:49:53.147Z,22.83
2019-02-26T11:52:20.889Z,22.60
2019-02-26T11:54:49.059Z,21.73
2019-02-26T11:57:17.827Z,21.03
2019-02-26T11:59:46.628Z,20.23
2019-02-26T12:02:14.361Z,21.20
2019-02-26T12:04:42.422Z,21.43
2019-02-26T12:07:10.244Z,24.73
2019-02-26T12:09:40.772Z,22.30
2019-02-26T12:12:11.640Z,23.20
2019-02-26T12:14:41.168Z,21.50
2019-02-26T12:17:09.228Z,20.67
2019-02-26T12:19:37.264Z,20.83
2019-02-26T12:22:06.038Z,21.17
2019-02-26T12:24:36.070Z,20.53
2019-02-26T12:27:03.940Z,19.17
2019-02-26T12:29:31.691Z,21.00
2019-02-26T12:32:01.208Z,20.63
2019-02-26T12:34:29.146Z,19.63
2019-02-26T12:37:02.052Z,20.83
2019-02-26T12:39:29.225Z,19.40
2019-02-26T12:41:56.880Z,19.07
2019-02-26T12:44:24.643Z,19.63
2019-02-26T12:46:53.740Z,18.27
2019-02-26T12:49:22.561Z,18.87
2019-02-26T12:51:53.753Z,19.87
2019-02-26T12:54:20.204Z,19.83
2019-02-26T12:56:49.025Z,19.13
2019-02-26T12:59:17.654Z,18.13
2019-02-26T13:01:46.809Z,19.23
2019-02-26T13:04:19.601Z,19.70
2019-02-26T13:06:47.717Z,18.13
2019-02-26T13:09:14.790Z,18.40
2019-02-26T13:12:00.198Z,18.80
2019-02-26T13:14:21.427Z,18.43
2019-02-26T13:16:52.225Z,17.90
2019-02-26T13:19:22.029Z,17.03
2019-02-26T13:21:51.752Z,19.17
2019-02-26T13:24:21.392Z,18.87
2019-02-26T13:26:51.001Z,18.10
2019-02-26T13:29:18.038Z,18.27
2019-02-26T13:31:56.061Z,18.43
2019-02-26T13:34:15.481Z,18.20
2019-02-26T13:36:47.529Z,17.90
2019-02-26T13:39:22.026Z,18.57
2019-02-26T13:41:42.906Z,17.77
2019-02-26T13:44:11.042Z,17.17
2019-02-26T13:46:39.051Z,16.97
2019-02-26T13:49:07.008Z,17.10
2019-02-26T13:51:34.927Z,17.47
2019-02-26T13:54:02.798Z,16.10
2019-02-26T13:56:30.576Z,16.13
2019-02-26T13:58:58.334Z,16.53
2019-02-26T14:01:26.344Z,17.57
2019-02-26T14:03:54.922Z,17.13
2019-02-26T14:06:22.743Z,15.47
2019-02-26T14:08:50.901Z,16.20
2019-02-26T14:11:18.680Z,16.40
2019-02-26T14:13:46.538Z,15.60
2019-02-26T14:16:17.186Z,15.60
2019-02-26T14:18:45.124Z,16.03
2019-02-26T14:21:13.250Z,17.13
2019-02-26T14:23:42.337Z,16.27
2019-02-26T14:26:10.132Z,16.07
2019-02-26T14:28:38.967Z,17.47
2019-02-26T14:31:06.799Z,16.93
2019-02-26T14:33:35.398Z,16.97
2019-02-26T14:36:04.158Z,16.57
2019-02-26T14:38:31.953Z,17.47
2019-02-26T14:41:00.159Z,17.17
2019-02-26T14:43:28.817Z,16.40
2019-02-26T14:45:56.983Z,15.10
2019-02-26T14:48:24.873Z,14.97
2019-02-26T14:50:52.617Z,13.70
2019-02-26T14:53:20.535Z,13.63
2019-02-26T14:55:48.401Z,15.10
2019-02-26T14:58:17.509Z,14.03
2019-02-26T15:00:45.466Z,16.20
2019-02-26T15:03:13.332Z,15.90
2019-02-26T15:05:41.113Z,16.60
2019-02-26T15:08:09.685Z,16.70
2019-02-26T15:10:37.777Z,16.53
2019-02-26T15:13:05.679Z,17.40
2019-02-26T15:15:54.093Z,18.87
2019-02-26T15:18:22.001Z,17.50
2019-02-26T15:20:49.853Z,17.53
2019-02-26T15:23:17.766Z,17.27
2019-02-26T15:25:45.728Z,17.47
2019-02-26T15:28:13.595Z,18.80
2019-02-26T15:30:41.518Z,16.97
2019-02-26T15:33:11.378Z,18.77
2019-02-26T15:35:39.381Z,19.10
2019-02-26T15:38:07.178Z,26.80
2019-02-26T15:40:34.908Z,29.37
2019-02-26T15:43:02.789Z,50.27
2019-02-26T15:45:30.974Z,37.63
2019-02-26T15:47:58.998Z,20.57
2019-02-26T15:50:26.942Z,25.03
2019-02-26T15:52:55.357Z,21.27
2019-02-26T15:55:25.943Z,20.40
2019-02-26T15:57:53.252Z,28.00
2019-02-26T16:00:22.996Z,29.00
2019-02-26T16:02:51.407Z,24.37
2019-02-26T16:05:20.541Z,37.43
2019-02-26T16:07:48.438Z,23.07
2019-02-26T16:10:16.372Z,20.37
2019-02-26T16:12:44.193Z,18.90
2019-02-26T16:15:12.246Z,20.77
2019-02-26T16:17:40.040Z,19.73
2019-02-26T16:20:10.880Z,19.27
2019-02-26T16:22:38.703Z,19.73
2019-02-26T16:25:08.187Z,21.00
2019-02-26T16:27:37.827Z,21.63
2019-02-26T16:30:10.558Z,23.07
2019-02-26T16:32:39.570Z,37.77
2019-02-26T16:35:08.234Z,25.60
2019-02-26T16:37:35.987Z,23.20
2019-02-26T16:40:04.353Z,26.83
2019-02-26T16:42:32.089Z,24.33
2019-02-26T16:45:01.321Z,24.03
2019-02-26T16:47:29.439Z,24.40
2019-02-26T16:49:58.641Z,25.37
2019-02-26T16:52:28.852Z,23.47
2019-02-26T16:54:57.236Z,26.17
2019-02-26T16:57:25.759Z,25.87
2019-02-26T16:59:54.993Z,29.13
2019-02-26T17:02:22.953Z,26.77
2019-02-26T17:04:50.744Z,33.67
2019-02-26T17:07:18.588Z,28.77
2019-02-26T17:09:46.494Z,27.87
2019-02-26T17:12:14.237Z,27.30
2019-02-26T17:14:42.665Z,27.70
2019-02-26T17:17:10.521Z,28.27
2019-02-26T17:19:38.368Z,28.83
2019-02-26T17:22:06.192Z,29.13
2019-02-26T17:24:34.015Z,26.03
2019-02-26T17:27:03.484Z,26.47
2019-02-26T17:29:31.620Z,27.03
2019-02-26T17:32:03.403Z,27.50
2019-02-26T17:34:29.176Z,26.03
2019-02-26T17:36:56.941Z,26.03
2019-02-26T17:39:25.982Z,25.10
2019-02-26T17:41:54.809Z,25.03
2019-02-26T17:44:22.712Z,26.17
2019-02-26T17:46:50.454Z,35.40
2019-02-26T17:49:18.256Z,30.17
2019-02-26T17:51:46.097Z,61.33
2019-02-26T17:54:15.221Z,140.60
2019-02-26T17:56:43.667Z,81.97
2019-02-26T17:59:11.685Z,40.40
2019-02-26T18:01:40.133Z,35.47
2019-02-26T18:04:08.123Z,30.13
2019-02-26T18:06:35.955Z,26.57
2019-02-26T18:09:05.133Z,27.77
2019-02-26T18:11:32.977Z,26.43
2019-02-26T18:14:00.899Z,27.50
2019-02-26T18:16:28.745Z,27.10
2019-02-26T18:18:56.563Z,27.53
2019-02-26T18:21:24.537Z,27.77
2019-02-26T18:23:52.372Z,28.83
2019-02-26T18:26:20.278Z,26.10
2019-02-26T18:28:48.426Z,26.77
2019-02-26T18:31:16.292Z,27.67
2019-02-26T18:33:44.064Z,27.53
2019-02-26T18:36:11.989Z,27.90
2019-02-26T18:38:39.771Z,28.70
2019-02-26T18:41:07.576Z,28.97
2019-02-26T18:43:35.308Z,28.17
2019-02-26T18:46:03.330Z,28.23
2019-02-26T18:48:31.149Z,29.40
2019-02-26T18:50:59.681Z,28.30
2019-02-26T18:53:28.633Z,29.83
2019-02-26T18:55:56.547Z,28.90
2019-02-26T18:58:24.596Z,30.83
2019-02-26T19:00:53.821Z,29.90
2019-02-26T19:03:21.578Z,29.60
2019-02-26T19:05:53.806Z,29.87
2019-02-26T19:08:19.654Z,31.23
2019-02-26T19:10:47.698Z,30.30
2019-02-26T19:13:15.649Z,34.47
2019-02-26T19:15:47.586Z,80.10
2019-02-26T19:18:13.187Z,40.17
2019-02-26T19:20:41.097Z,53.47
2019-02-26T19:23:08.941Z,34.50
2019-02-26T19:25:36.771Z,31.57
2019-02-26T19:28:16.101Z,33.73
2019-02-26T19:30:44.073Z,32.37
2019-02-26T19:33:11.833Z,29.67
2019-02-26T19:35:40.561Z,31.53
2019-02-26T19:38:08.433Z,30.73
2019-02-26T19:40:38.993Z,31.67
2019-02-26T19:43:07.531Z,29.67
2019-02-26T19:45:35.456Z,31.63
2019-02-26T19:48:03.312Z,30.63
2019-02-26T19:50:31.412Z,32.33
2019-02-26T19:53:02.444Z,32.53
2019-02-26T19:55:32.120Z,32.60
2019-02-26T19:58:02.917Z,32.73
2019-02-26T20:00:31.919Z,31.93
2019-02-26T20:02:59.688Z,33.07
2019-02-26T20:05:27.686Z,33.03
2019-02-26T20:07:56.355Z,32.70
2019-02-26T20:10:24.477Z,34.67
2019-02-26T20:12:54.031Z,34.17
2019-02-26T20:15:22.500Z,33.73
2019-02-26T20:17:50.257Z,31.80
2019-02-26T20:20:18.332Z,32.60
2019-02-26T20:22:46.263Z,32.93
2019-02-26T20:25:15.168Z,32.97
2019-02-26T20:27:44.083Z,42.53
2019-02-26T20:30:14.156Z,40.77
2019-02-26T20:32:41.939Z,36.10
2019-02-26T20:35:11.965Z,32.80
2019-02-26T20:37:41.289Z,32.37
2019-02-26T20:40:15.775Z,34.07
2019-02-26T20:42:42.029Z,33.87
2019-02-26T20:45:11.485Z,32.23
2019-02-26T20:47:39.983Z,31.70
2019-02-26T20:50:08.129Z,32.20
2019-02-26T20:52:36.025Z,32.53
2019-02-26T20:55:04.012Z,32.73
2019-02-26T20:57:31.819Z,31.77
2019-02-26T20:59:59.687Z,32.83
2019-02-26T21:02:27.493Z,32.63
2019-02-26T21:04:55.263Z,32.67
2019-02-26T21:07:24.550Z,33.60
2019-02-26T21:09:52.841Z,36.07
2019-02-26T21:12:20.641Z,34.70
2019-02-26T21:14:48.419Z,35.00
2019-02-26T21:17:16.296Z,34.83
2019-02-26T21:19:44.053Z,35.87
2019-02-26T21:22:12.035Z,34.43
2019-02-26T21:24:39.766Z,34.33
2019-02-26T21:27:07.689Z,36.67
2019-02-26T21:29:38.700Z,35.77
2019-02-26T21:32:07.686Z,35.03
2019-02-26T21:34:35.584Z,35.63
2019-02-26T21:37:03.575Z,34.40
2019-02-26T21:39:31.413Z,36.37
2019-02-26T21:41:59.198Z,37.27
2019-02-26T21:44:26.937Z,36.03
2019-02-26T21:46:56.067Z,35.00
2019-02-26T21:49:24.554Z,36.35
2019-02-26T21:51:52.359Z,35.90
2019-02-26T21:54:20.089Z,36.27
2019-02-26T21:56:48.960Z,36.43
2019-02-26T21:59:17.378Z,36.27
2019-02-26T22:01:46.122Z,37.43
2019-02-26T22:04:14.364Z,37.53
2019-02-26T22:06:44.445Z,36.73
2019-02-26T22:09:11.900Z,35.77
2019-02-26T22:11:39.721Z,36.05
2019-02-26T22:14:07.791Z,36.30
2019-02-26T22:16:35.600Z,37.30
2019-02-26T22:19:04.799Z,36.85
2019-02-26T22:21:33.243Z,36.13
2019-02-26T22:24:01.023Z,37.23
2019-02-26T22:26:28.884Z,36.77
2019-02-26T22:28:56.748Z,38.47
2019-02-26T22:31:28.709Z,36.73
2019-02-26T22:33:57.554Z,37.70
2019-02-26T22:36:25.417Z,38.17
2019-02-26T22:38:53.208Z,38.63
2019-02-26T22:41:20.942Z,36.90
2019-02-26T22:43:48.751Z,36.80
2019-02-26T22:46:16.573Z,38.20
2019-02-26T22:48:46.924Z,38.50
2019-02-26T22:51:14.338Z,37.37
2019-02-26T22:53:42.120Z,37.83
2019-02-26T22:56:09.875Z,36.90
2019-02-26T22:58:37.679Z,38.30
2019-02-26T23:01:16.836Z,37.03
2019-02-26T23:03:45.900Z,37.73
2019-02-26T23:06:14.608Z,37.20
2019-02-26T23:08:44.789Z,37.90
2019-02-26T23:11:14.328Z,37.17
2019-02-26T23:13:42.724Z,38.92
2019-02-26T23:16:10.687Z,40.40
2019-02-26T23:18:39.402Z,39.80
2019-02-26T23:21:08.096Z,40.67
2019-02-26T23:23:36.458Z,39.93
2019-02-26T23:26:08.651Z,42.70
2019-02-26T23:28:34.181Z,39.37
2019-02-26T23:31:02.061Z,38.63
2019-02-26T23:33:31.672Z,38.48
2019-02-26T23:36:00.626Z,39.75
2019-02-26T23:38:28.519Z,41.07
2019-02-26T23:40:58.166Z,39.40
2019-02-26T23:43:26.479Z,37.90
2019-02-26T23:45:56.849Z,38.27
2019-02-26T23:48:24.331Z,36.73
2019-02-26T23:50:52.148Z,37.05
2019-02-26T23:53:20.170Z,39.20
2019-02-26T23:55:48.127Z,38.80
2019-02-26T23:58:16.982Z,39.70
